Terminal Aerodrome Forecast
Issued by NWS

Home | Current Version | Previous Version | Text Only | Print | Product List | Glossary On
Versions: 1 2 3 4 5 6 7 8 9 10 11 12 13 14 15 16 17 18 19 20 21 22 23 24 25 26 27 28
872
FTUS45 KREV 181140
TAFTRK
TAF
KTRK 181140Z 1812/1912 18008KT P6SM SCT040 BKN110
     FM181800 20020G35KT P6SM BKN035 BKN120 WS020/23045KT
     FM190000 21018G30KT P6SM VCSH SCT020 BKN035 WS020/24040KT
     FM190300 21016G28KT 5SM RA SCT015 OVC030
     FM190600 22014G25KT 1SM -SN OVC010=

USA.gov is the U.S. government's official web portal to all federal, state and local government web resources and services.